Time;durP1;ratioP1;P1;durP2;ratioP2;P2;SDS_P1;SDS_P2;PMS_P1;PMS_P2;Temp;Humidity;BMP_temperature;BMP_pressure;BME280_temperature;BME280_humidity;BME280_pressure;Samples;Min_cycle;Max_cycle;Signal;HPM_P1;HPM_P2
2021/08/19 00:01:24;;;;;;;;;;;;;;;23.54;60.69;100322.25;5081267;28;970;-40
2021/08/19 00:03:49;;;;;;;;;;;;;;;26.06;55.44;100328.72;5099842;28;835;-42
2021/08/19 00:06:14;;;;;;;;;;;;;;;27.05;52.91;100314.97;5099652;28;771;-42
2021/08/19 00:08:40;;;;;;;;;;;;;;;27.94;50.18;100312.75;5099656;28;823;-43
2021/08/19 00:11:05;;;;;;;;;;;;;;;27.94;51.14;100312.75;5099719;28;816;-41
2021/08/19 00:13:30;;;;;;;;;;;;;;;23.72;60.30;100312.13;5099420;28;742;-38
2021/08/19 00:15:56;;;;;;;;;;;;;;;22.93;62.55;100312.63;5099562;28;1905;-42
2021/08/19 00:18:22;;;;;;;;;;;;;;;25.36;57.15;100325.16;5081515;28;1013;-42
2021/08/19 00:20:47;;;;;;;;;;;;;;;27.09;51.36;100319.78;5078647;28;831;-41
2021/08/19 00:23:12;;;;;;;;;;;;;;;27.75;50.65;100319.72;5079440;28;744;-41
2021/08/19 00:25:37;;;;;;;;;;;;;;;28.08;50.37;100313.66;5079222;28;828;-46
2021/08/19 00:28:03;;;;;;;;;;;;;;;28.30;49.04;100302.72;5078920;28;807;-41
2021/08/19 00:30:28;;;;;;;;;;;;;;;25.89;53.64;100300.06;5079424;28;752;-40
2021/08/19 00:32:54;;;;;;;;;;;;;;;23.45;60.85;100291.88;5093544;28;1014;-45
2021/08/19 00:35:19;;;;;;;;;;;;;;;24.70;60.49;100286.94;5099029;28;1961;-44
2021/08/19 00:37:44;;;;;;;;;;;;;;;27.01;52.01;100291.06;5099239;28;843;-40
2021/08/19 00:40:10;;;;;;;;;;;;;;;27.72;51.03;100290.38;5099228;28;759;-38
2021/08/19 00:42:35;;;;;;;;;;;;;;;28.11;50.07;100280.81;5097487;28;1115;-39
2021/08/19 00:45:00;;;;;;;;;;;;;;;24.37;57.99;100276.38;5098695;28;821;-43
2021/08/19 00:47:29;;;;;;;;;;;;;;;23.68;61.78;100283.13;5086956;28;1240;-38
2021/08/19 00:49:54;;;;;;;;;;;;;;;26.37;54.00;100290.78;5077879;28;1067;-40
2021/08/19 00:52:20;;;;;;;;;;;;;;;27.19;52.41;100299.72;5077651;28;831;-42
2021/08/19 00:54:45;;;;;;;;;;;;;;;27.97;50.45;100301.56;5076701;28;1898;-44
2021/08/19 00:57:12;;;;;;;;;;;;;;;28.01;50.51;100315.47;5078660;28;790;-42
2021/08/19 00:59:38;;;;;;;;;;;;;;;28.06;51.04;100323.00;5077426;28;839;-42
2021/08/19 01:02:03;;;;;;;;;;;;;;;24.48;58.16;100326.22;5085204;28;1017;-40
2021/08/19 01:04:29;;;;;;;;;;;;;;;23.08;61.94;100329.75;5098761;28;747;-43
2021/08/19 01:06:55;;;;;;;;;;;;;;;24.48;60.93;100326.22;5098769;28;850;-42
2021/08/19 01:09:21;;;;;;;;;;;;;;;26.87;51.92;100325.16;5098720;28;751;-43
2021/08/19 01:11:46;;;;;;;;;;;;;;;27.48;51.32;100325.72;5098374;28;819;-42
2021/08/19 01:14:12;;;;;;;;;;;;;;;27.87;50.93;100330.81;5098617;28;1890;-42
2021/08/19 01:16:38;;;;;;;;;;;;;;;28.30;49.63;100347.88;5094399;28;938;-42
2021/08/19 01:19:03;;;;;;;;;;;;;;;28.01;50.99;100353.31;5078327;28;750;-42
2021/08/19 01:21:28;;;;;;;;;;;;;;;23.78;59.86;100344.69;5078057;28;823;-41
2021/08/19 01:23:54;;;;;;;;;;;;;;;22.99;61.88;100341.47;5078308;28;759;-43
2021/08/19 01:26:19;;;;;;;;;;;;;;;25.75;55.84;100350.25;5078048;28;725;-40
2021/08/19 01:28:45;;;;;;;;;;;;;;;27.23;51.29;100363.09;5077776;28;736;-41
2021/08/19 01:31:15;;;;;;;;;;;;;;;27.87;50.32;100380.31;5078132;28;783;-42
2021/08/19 01:33:41;;;;;;;;;;;;;;;28.20;49.74;100380.69;5077491;28;854;-42
2021/08/19 01:36:06;;;;;;;;;;;;;;;28.44;48.77;100381.28;5077923;28;1914;-42
2021/08/19 01:38:34;;;;;;;;;;;;;;;28.53;48.82;100379.22;5077958;28;796;-41
2021/08/19 01:40:59;;;;;;;;;;;;;;;28.48;49.36;100382.53;5077402;28;774;-41
2021/08/19 01:43:25;;;;;;;;;;;;;;;24.21;58.54;100369.50;5077662;28;756;-40
2021/08/19 01:46:00;;;;;;;;;;;;;;;23.14;61.51;100376.53;5078200;28;761;-42
2021/08/19 01:48:26;;;;;;;;;;;;;;;25.49;56.74;100377.56;5095669;28;1073;-42
2021/08/19 01:50:51;;;;;;;;;;;;;;;27.13;51.52;100374.22;5097804;28;827;-42
2021/08/19 01:53:17;;;;;;;;;;;;;;;27.81;50.32;100380.25;5097658;28;567;-42
2021/08/19 01:55:42;;;;;;;;;;;;;;;28.19;50.08;100377.16;5097432;28;1913;-42
2021/08/19 01:58:08;;;;;;;;;;;;;;;28.40;49.09;100386.25;5096723;28;790;-42
2021/08/19 02:00:33;;;;;;;;;;;;;;;28.53;48.92;100396.28;5097792;28;607;-41
2021/08/19 02:03:02;;;;;;;;;;;;;;;28.62;48.94;100407.78;5082351;28;1016;-41
2021/08/19 02:05:27;;;;;;;;;;;;;;;24.54;57.96;100421.47;5077420;28;787;-48
2021/08/19 02:07:52;;;;;;;;;;;;;;;23.26;60.97;100424.50;5076861;28;740;-40
2021/08/19 02:10:18;;;;;;;;;;;;;;;25.01;58.74;100429.69;5077179;28;826;-46
2021/08/19 02:12:44;;;;;;;;;;;;;;;27.12;51.55;100442.75;5077436;28;868;-45
2021/08/19 02:15:10;;;;;;;;;;;;;;;27.70;50.56;100441.06;5076905;28;1965;-41
2021/08/19 02:17:36;;;;;;;;;;;;;;;27.87;50.80;100441.63;5088623;28;946;-42
2021/08/19 02:20:01;;;;;;;;;;;;;;;28.31;49.13;100449.63;5097389;28;783;-40
2021/08/19 02:22:26;;;;;;;;;;;;;;;28.15;49.80;100448.91;5097319;28;839;-42
2021/08/19 02:24:52;;;;;;;;;;;;;;;28.42;50.04;100445.56;5097353;28;730;-42
2021/08/19 02:27:17;;;;;;;;;;;;;;;25.07;56.37;100445.16;5097343;28;802;-42
2021/08/19 02:29:43;;;;;;;;;;;;;;;23.27;61.19;100436.94;5097028;28;886;-44
2021/08/19 02:32:08;;;;;;;;;;;;;;;23.83;62.60;100437.19;5088419;28;910;-43
2021/08/19 02:34:33;;;;;;;;;;;;;;;26.60;52.42;100450.81;5076918;28;1969;-42
2021/08/19 02:36:58;;;;;;;;;;;;;;;27.53;50.54;100454.00;5077056;28;728;-42
2021/08/19 02:39:24;;;;;;;;;;;;;;;28.09;48.94;100447.81;5076969;28;882;-43
2021/08/19 02:41:49;;;;;;;;;;;;;;;28.30;48.84;100448.78;5076573;28;752;-48
2021/08/19 02:44:14;;;;;;;;;;;;;;;28.31;49.25;100446.94;5076873;28;843;-42
2021/08/19 02:46:39;;;;;;;;;;;;;;;28.62;48.48;100439.41;5080388;28;978;-45
2021/08/19 02:49:05;;;;;;;;;;;;;;;28.58;48.89;100438.97;5080774;28;1082;-42
2021/08/19 02:51:30;;;;;;;;;;;;;;;28.79;48.39;100439.91;5076751;28;848;-43
2021/08/19 02:53:55;;;;;;;;;;;;;;;25.17;56.20;100444.94;5076780;28;888;-42
2021/08/19 02:56:22;;;;;;;;;;;;;;;23.34;60.83;100435.28;5076568;28;1961;-43
2021/08/19 02:58:47;;;;;;;;;;;;;;;25.23;57.88;100444.22;5076197;28;833;-43
2021/08/19 03:01:12;;;;;;;;;;;;;;;27.21;51.66;100448.88;5076804;28;986;-42
2021/08/19 03:03:38;;;;;;;;;;;;;;;27.83;50.47;100441.19;5096385;28;744;-44
2021/08/19 03:06:03;;;;;;;;;;;;;;;27.94;50.84;100442.53;5096640;28;847;-42
2021/08/19 03:08:28;;;;;;;;;;;;;;;28.51;48.90;100430.00;5096398;28;767;-42
2021/08/19 03:10:53;;;;;;;;;;;;;;;28.48;49.83;100415.00;5096133;28;859;-42
2021/08/19 03:13:19;;;;;;;;;;;;;;;28.62;49.57;100421.31;5096401;28;759;-42
2021/08/19 03:15:44;;;;;;;;;;;;;;;25.14;57.15;100421.06;5096861;28;1963;-41
2021/08/19 03:18:10;;;;;;;;;;;;;;;23.48;61.19;100425.78;5079772;28;941;-40
2021/08/19 03:20:35;;;;;;;;;;;;;;;23.72;62.78;100422.25;5076483;28;795;-42
2021/08/19 03:23:01;;;;;;;;;;;;;;;26.44;53.84;100430.28;5076506;28;746;-46
2021/08/19 03:25:27;;;;;;;;;;;;;;;27.20;52.37;100431.84;5074580;28;791;-44
2021/08/19 03:27:57;;;;;;;;;;;;;;;28.04;50.06;100425.13;5076330;28;487;-43
2021/08/19 03:30:22;;;;;;;;;;;;;;;28.21;49.85;100431.88;5076199;28;803;-43
2021/08/19 03:32:48;;;;;;;;;;;;;;;27.93;51.27;100442.69;5088870;28;998;-43
2021/08/19 03:35:13;;;;;;;;;;;;;;;28.54;48.81;100451.25;5096843;28;1898;-43
2021/08/19 03:37:40;;;;;;;;;;;;;;;28.25;50.05;100467.47;5096399;28;755;-46
2021/08/19 03:40:06;;;;;;;;;;;;;;;23.83;57.93;100466.75;5096143;28;811;-40
2021/08/19 03:42:32;;;;;;;;;;;;;;;21.21;55.81;100458.47;5096401;28;843;-40
2021/08/19 03:44:57;;;;;;;;;;;;;;;20.34;56.17;100467.53;5096285;28;779;-41
2021/08/19 03:47:23;;;;;;;;;;;;;;;19.76;55.26;100465.59;5085709;28;938;-38
2021/08/19 03:49:49;;;;;;;;;;;;;;;19.28;53.88;100469.91;5075549;28;1175;-44
2021/08/19 03:52:14;;;;;;;;;;;;;;;19.32;54.57;100468.63;5075566;28;1436;-39
2021/08/19 03:54:39;;;;;;;;;;;;;;;18.43;55.87;100478.94;5092580;28;1963;-39
2021/08/19 03:57:05;;;;;;;;;;;;;;;18.92;60.90;100464.97;5076003;28;851;-40
2021/08/19 03:59:30;;;;;;;;;;;;;;;19.04;63.17;100460.41;5075968;28;857;-36
2021/08/19 04:01:55;;;;;;;;;;;;;;;18.47;61.22;100461.69;5081719;28;974;-35
2021/08/19 04:04:21;;;;;;;;;;;;;;;17.97;61.46;100458.69;5091118;28;834;-36
2021/08/19 04:06:46;;;;;;;;;;;;;;;17.31;59.66;100481.78;5076073;28;829;-37
2021/08/19 04:09:11;;;;;;;;;;;;;;;17.27;61.36;100490.13;5075536;28;839;-37
2021/08/19 04:11:36;;;;;;;;;;;;;;;17.33;64.13;100500.28;5076201;28;772;-37
2021/08/19 04:14:02;;;;;;;;;;;;;;;18.04;67.20;100490.13;5075667;28;1957;-37
2021/08/19 04:16:27;;;;;;;;;;;;;;;18.21;60.86;100497.59;5076268;28;1060;-37
2021/08/19 04:18:52;;;;;;;;;;;;;;;17.90;63.29;100502.75;5074445;28;1111;-36
2021/08/19 04:21:17;;;;;;;;;;;;;;;21.24;58.01;100509.00;5077739;28;756;-34
2021/08/19 04:23:44;;;;;;;;;;;;;;;22.53;55.64;100505.34;5079187;28;797;-37
2021/08/19 04:26:10;;;;;;;;;;;;;;;23.17;54.17;100507.69;5079318;28;953;-36
2021/08/19 04:28:35;;;;;;;;;;;;;;;23.46;53.67;100511.84;5078957;28;844;-36
2021/08/19 04:31:01;;;;;;;;;;;;;;;23.55;53.84;100510.03;5079231;28;795;-36
2021/08/19 04:33:28;;;;;;;;;;;;;;;23.62;53.69;100506.66;5097446;28;951;-36
2021/08/19 04:35:54;;;;;;;;;;;;;;;23.73;53.48;100500.97;5099591;28;1959;-37
2021/08/19 04:38:19;;;;;;;;;;;;;;;23.68;53.15;100500.63;5099545;28;870;-35
2021/08/19 04:40:44;;;;;;;;;;;;;;;23.96;52.38;100494.94;5099175;28;775;-36
2021/08/19 04:43:09;;;;;;;;;;;;;;;23.74;52.93;100497.28;5098908;28;835;-36
2021/08/19 04:45:35;;;;;;;;;;;;;;;24.02;52.04;100493.44;5099244;28;910;-37
2021/08/19 04:48:00;;;;;;;;;;;;;;;24.11;51.91;100491.59;5083623;28;1217;-32
2021/08/19 04:50:25;;;;;;;;;;;;;;;24.16;51.45;100492.78;5079107;28;792;-31
2021/08/19 04:52:51;;;;;;;;;;;;;;;24.35;51.02;100496.13;5078843;28;794;-37
2021/08/19 04:55:16;;;;;;;;;;;;;;;24.16;51.45;100490.09;5078029;28;1977;-36
2021/08/19 04:57:41;;;;;;;;;;;;;;;24.22;51.11;100488.59;5078932;28;767;-37
2021/08/19 05:00:07;;;;;;;;;;;;;;;24.20;51.06;100495.97;5078826;28;747;-35
2021/08/19 05:02:32;;;;;;;;;;;;;;;24.53;50.44;100505.84;5089518;28;1017;-36
2021/08/19 05:04:57;;;;;;;;;;;;;;;24.12;51.03;100496.81;5098977;28;831;-37
2021/08/19 05:07:25;;;;;;;;;;;;;;;23.42;52.48;100505.09;5098614;28;831;-37
2021/08/19 05:09:50;;;;;;;;;;;;;;;23.42;53.48;100517.72;5098465;28;817;-37
2021/08/19 05:12:15;;;;;;;;;;;;;;;24.18;51.00;100506.91;5098566;28;820;-37
2021/08/19 05:14:41;;;;;;;;;;;;;;;24.65;49.89;100514.38;5098875;28;1918;-38
2021/08/19 05:17:06;;;;;;;;;;;;;;;25.01;49.48;100523.88;5090475;28;957;-42
2021/08/19 05:19:33;;;;;;;;;;;;;;;23.69;50.88;100521.94;5078750;28;763;-39
2021/08/19 05:21:58;;;;;;;;;;;;;;;23.31;52.16;100525.03;5078113;28;795;-39
2021/08/19 05:24:23;;;;;;;;;;;;;;;23.35;51.45;100526.38;5077988;28;836;-40
2021/08/19 05:26:49;;;;;;;;;;;;;;;24.46;49.14;100514.59;5078434;28;828;-35
2021/08/19 05:29:14;;;;;;;;;;;;;;;24.66;48.61;100516.91;5078079;28;799;-39
2021/08/19 05:31:39;;;;;;;;;;;;;;;24.53;49.15;100516.59;5081248;28;988;-37
2021/08/19 05:34:08;;;;;;;;;;;;;;;24.72;47.74;100518.06;5098190;28;1910;-39
2021/08/19 05:36:33;;;;;;;;;;;;;;;23.10;51.90;100526.31;5098251;28;876;-38
2021/08/19 05:38:58;;;;;;;;;;;;;;;23.13;52.59;100530.50;5098080;28;740;-36
2021/08/19 05:41:23;;;;;;;;;;;;;;;24.53;48.85;100530.03;5098367;28;867;-38
2021/08/19 05:43:49;;;;;;;;;;;;;;;24.54;49.26;100523.66;5098094;28;767;-37
2021/08/19 05:46:14;;;;;;;;;;;;;;;23.18;51.65;100535.38;5096872;28;921;-36
2021/08/19 05:48:39;;;;;;;;;;;;;;;23.52;51.91;100539.03;5077657;28;1068;-36
2021/08/19 05:51:05;;;;;;;;;;;;;;;24.92;47.74;100533.84;5077785;28;906;-35
2021/08/19 05:53:30;;;;;;;;;;;;;;;24.70;46.29;100544.28;5077920;28;806;-33
2021/08/19 05:55:55;;;;;;;;;;;;;;;21.47;56.54;100544.22;5077579;28;1969;-37
2021/08/19 05:58:21;;;;;;;;;;;;;;;24.13;50.68;100559.44;5077433;28;833;-33
2021/08/19 06:00:46;;;;;;;;;;;;;;;;;;5077533;28;826;-40
2021/08/19 06:03:12;;;;;;;;;;;;;;;23.21;53.50;100552.00;5094159;28;1036;-32
2021/08/19 06:05:38;;;;;;;;;;;;;;;24.01;47.51;100557.06;5097692;28;1035;-37
2021/08/19 06:08:03;;;;;;;;;;;;;;;22.25;55.96;100559.91;5097129;28;815;-39
2021/08/19 06:10:29;;;;;;;;;;;;;;;24.53;49.14;100554.22;5097314;28;999;-33
2021/08/19 06:12:54;;;;;;;;;;;;;;;22.27;54.50;100550.72;5097842;28;819;-35
2021/08/19 06:15:19;;;;;;;;;;;;;;;24.53;49.29;100554.22;5097269;28;1970;-34
2021/08/19 06:17:44;;;;;;;;;;;;;;;21.68;54.99;100559.19;5084086;28;989;-35
2021/08/19 06:20:10;;;;;;;;;;;;;;;23.92;51.03;100561.59;5077411;28;850;-34
2021/08/19 06:22:35;;;;;;;;;;;;;;;22.67;51.49;100566.44;5077601;28;740;-34
2021/08/19 06:25:00;;;;;;;;;;;;;;;23.65;52.03;100573.47;5076727;28;788;-35
2021/08/19 06:27:26;;;;;;;;;;;;;;;23.92;47.66;100563.47;5077161;28;779;-38
2021/08/19 06:29:51;;;;;;;;;;;;;;;22.54;55.88;100564.16;5077296;28;743;-36
2021/08/19 06:32:16;;;;;;;;;;;;;;;24.66;48.90;100568.00;5086085;28;978;-35
2021/08/19 06:34:41;;;;;;;;;;;;;;;22.01;55.03;100567.59;5097373;28;1910;-33
2021/08/19 06:37:07;;;;;;;;;;;;;;;24.45;49.73;100565.84;5096503;28;862;-36
2021/08/19 06:39:32;;;;;;;;;;;;;;;21.95;54.31;100564.66;5097309;28;803;-33
2021/08/19 06:41:57;;;;;;;;;;;;;;;23.72;52.16;100578.00;5097622;28;754;-33
2021/08/19 06:44:23;;;;;;;;;;;;;;;23.38;50.42;100572.69;5096271;28;871;-34
2021/08/19 06:46:48;;;;;;;;;;;;;;;22.61;56.17;100575.13;5091496;28;937;-34
2021/08/19 06:49:13;;;;;;;;;;;;;;;24.79;48.88;100582.78;5076921;28;1688;-39
2021/08/19 06:51:39;;;;;;;;;;;;;;;21.61;56.80;100574.16;5076627;28;744;-32
2021/08/19 06:54:04;;;;;;;;;;;;;;;23.97;51.81;100574.56;5076816;28;775;-33
2021/08/19 06:56:30;;;;;;;;;;;;;;;23.38;51.22;100572.69;5076372;28;2028;-36
2021/08/19 06:58:55;;;;;;;;;;;;;;;22.80;53.19;100579.44;5076373;28;761;-35
2021/08/19 07:01:20;;;;;;;;;;;;;;;22.95;55.66;100587.75;5077820;28;982;-37
2021/08/19 07:03:45;;;;;;;;;;;;;;;25.05;48.74;100595.19;5096830;28;786;-37
2021/08/19 07:06:11;;;;;;;;;;;;;;;21.65;56.54;100572.88;5096638;28;826;-38
2021/08/19 07:08:36;;;;;;;;;;;;;;;23.80;52.54;100577.22;5096897;28;1522;-38
2021/08/19 07:11:02;;;;;;;;;;;;;;;23.81;50.57;100578.03;5097259;28;813;-34
2021/08/19 07:13:27;;;;;;;;;;;;;;;21.32;58.99;100577.84;5096494;28;771;-36
2021/08/19 07:15:52;;;;;;;;;;;;;;;20.95;60.08;100584.88;5096482;28;1967;-37
2021/08/19 07:18:18;;;;;;;;;;;;;;;22.82;57.39;100585.47;5078388;28;938;-35
2021/08/19 07:20:43;;;;;;;;;;;;;;;24.99;50.70;100582.44;5076403;28;732;-36
2021/08/19 07:23:08;;;;;;;;;;;;;;;21.43;59.26;100582.16;5076537;28;747;-38
2021/08/19 07:25:34;;;;;;;;;;;;;;;21.11;60.16;100582.44;5074953;28;1100;-35
2021/08/19 07:27:59;;;;;;;;;;;;;;;24.04;52.59;100580.09;5075936;28;823;-38
2021/08/19 07:30:24;;;;;;;;;;;;;;;22.00;55.66;100591.84;5076300;28;875;-37
2021/08/19 07:32:49;;;;;;;;;;;;;;;21.85;58.13;100589.69;5089919;28;1130;-36
2021/08/19 07:35:15;;;;;;;;;;;;;;;24.54;50.74;100591.72;5096526;28;1964;-38
2021/08/19 07:37:48;;;;;;;;;;;;;;;21.81;56.09;100590.13;5095847;28;844;-37
2021/08/19 07:40:13;;;;;;;;;;;;;;;22.86;55.79;100592.22;5096714;28;818;-36
2021/08/19 07:42:39;;;;;;;;;;;;;;;25.00;48.84;100597.56;5096592;28;768;-36
2021/08/19 07:45:05;;;;;;;;;;;;;;;21.37;57.27;100592.44;5096345;28;835;-36
2021/08/19 07:47:30;;;;;;;;;;;;;;;23.84;52.20;100600.03;5083509;28;1273;-38
2021/08/19 07:49:56;;;;;;;;;;;;;;;22.95;51.89;100603.00;5076306;28;1123;-35
2021/08/19 07:52:21;;;;;;;;;;;;;;;21.87;57.20;100600.25;5076145;28;756;-36
2021/08/19 07:54:46;;;;;;;;;;;;;;;24.43;50.26;100609.03;5076962;28;1909;-36
2021/08/19 07:57:12;;;;;;;;;;;;;;;21.93;55.44;100606.81;5079569;28;811;-37
2021/08/19 07:59:37;;;;;;;;;;;;;;;22.59;56.55;100601.19;5079705;28;716;-37
2021/08/19 08:02:02;;;;;;;;;;;;;;;24.87;48.82;100614.22;5086748;28;1041;-36
2021/08/19 08:04:27;;;;;;;;;;;;;;;21.69;56.07;100606.38;5098742;28;1296;-36
2021/08/19 08:06:53;;;;;;;;;;;;;;;22.94;54.93;100609.38;5099482;28;817;-36
2021/08/19 08:09:18;;;;;;;;;;;;;;;25.01;48.31;100616.22;5100111;28;964;-37
2021/08/19 08:11:43;;;;;;;;;;;;;;;21.32;57.07;100607.28;5100227;28;803;-37
2021/08/19 08:14:09;;;;;;;;;;;;;;;22.92;55.08;100601.47;5099700;28;739;-36
2021/08/19 08:16:34;;;;;;;;;;;;;;;25.02;48.35;100617.06;5096245;28;1964;-36
2021/08/19 08:19:02;;;;;;;;;;;;;;;21.44;57.72;100606.09;5079681;28;839;-34
2021/08/19 08:21:27;;;;;;;;;;;;;;;22.07;57.47;100602.78;5088901;28;1318;-37
2021/08/19 08:23:53;;;;;;;;;;;;;;;24.62;49.26;100609.72;5079709;28;756;-37
2021/08/19 08:26:19;;;;;;;;;;;;;;;21.68;55.94;100610.06;5079366;28;842;-36
2021/08/19 08:28:45;;;;;;;;;;;;;;;22.33;56.85;100612.72;5095053;28;800;-37
2021/08/19 08:31:11;;;;;;;;;;;;;;;24.76;48.05;100600.09;5100153;28;831;-36
2021/08/19 08:33:36;;;;;;;;;;;;;;;21.63;55.60;100606.97;5079137;28;886;-37
2021/08/19 08:36:01;;;;;;;;;;;;;;;23.12;53.52;100606.63;5078833;28;1949;-36
2021/08/19 08:38:27;;;;;;;;;;;;;;;25.09;46.95;100601.06;5091882;28;864;-34
2021/08/19 08:40:52;;;;;;;;;;;;;;;21.40;55.01;100585.97;5099674;28;723;-35
2021/08/19 08:43:20;;;;;;;;;;;;;;;23.20;51.41;100601.31;5099231;28;718;-35
2021/08/19 08:45:48;;;;;;;;;;;;;;;25.02;44.84;100593.69;5099321;28;833;-35
2021/08/19 08:48:14;;;;;;;;;;;;;;;21.37;54.77;100589.78;5081624;28;1023;-35
2021/08/19 08:50:40;;;;;;;;;;;;;;;23.54;50.69;100598.78;5078760;28;846;-37
2021/08/19 08:53:07;;;;;;;;;;;;;;;24.17;47.85;100590.38;5078832;28;847;-36
2021/08/19 08:55:32;;;;;;;;;;;;;;;21.31;56.01;100587.69;5078899;28;1913;-36
2021/08/19 08:57:57;;;;;;;;;;;;;;;23.11;53.17;100587.00;5078192;28;732;-36
2021/08/19 09:00:22;;;;;;;;;;;;;;;24.73;47.02;100607.66;5078983;28;742;-37
2021/08/19 09:02:48;;;;;;;;;;;;;;;21.45;55.55;100580.16;5092567;28;1025;-36
2021/08/19 09:05:13;;;;;;;;;;;;;;;23.12;52.81;100582.47;5098415;28;817;-35
2021/08/19 09:07:38;;;;;;;;;;;;;;;25.10;46.10;100581.22;5098093;28;753;-33
2021/08/19 09:10:04;;;;;;;;;;;;;;;21.33;55.60;100579.53;5098730;28;862;-35
2021/08/19 09:12:29;;;;;;;;;;;;;;;22.65;54.58;100589.06;5098644;28;882;-36
2021/08/19 09:14:55;;;;;;;;;;;;;;;24.93;46.71;100583.94;5098904;28;1914;-36
2021/08/19 09:17:43;;;;;;;;;;;;;;;21.50;55.54;100578.72;5088583;28;993;-36
2021/08/19 09:20:08;;;;;;;;;;;;;;;22.47;55.23;100565.78;5070097;28;1610;-37
2021/08/19 09:22:52;;;;;;;;;;;;;;;24.65;45.95;100569.03;5078692;28;872;-36
2021/08/19 09:25:28;;;;;;;;;;;;;;;21.32;54.59;100572.50;5077854;28;776;-36
2021/08/19 09:28:12;;;;;;;;;;;;;;;23.62;49.74;100565.75;5077914;28;716;-35
2021/08/19 09:30:37;;;;;;;;;;;;;;;23.22;49.34;100580.50;5078242;28;776;-35
2021/08/19 09:33:03;;;;;;;;;;;;;;;21.07;55.83;100572.19;5093394;28;947;-37
2021/08/19 09:35:29;;;;;;;;;;;;;;;23.58;50.46;100570.59;5098472;28;1973;-37
2021/08/19 09:37:54;;;;;;;;;;;;;;;23.80;48.37;100569.16;5098052;28;741;-37
2021/08/19 09:40:20;;;;;;;;;;;;;;;21.22;56.10;100568.00;5098710;28;803;-37
2021/08/19 09:42:45;;;;;;;;;;;;;;;22.83;54.09;100576.44;5096603;28;840;-36
2021/08/19 09:45:18;;;;;;;;;;;;;;;24.99;46.90;100566.28;5098727;28;751;-37
2021/08/19 09:47:43;;;;;;;;;;;;;;;21.56;55.71;100561.22;5083147;28;1638;-37
2021/08/19 09:50:09;;;;;;;;;;;;;;;20.95;57.72;100555.47;5077145;28;811;-35
2021/08/19 09:52:34;;;;;;;;;;;;;;;23.84;50.32;100562.44;5077894;28;760;-36
2021/08/19 09:54:59;;;;;;;;;;;;;;;22.93;51.54;100559.41;5077510;28;1977;-37
2021/08/19 09:57:24;;;;;;;;;;;;;;;21.25;56.60;100561.53;5075818;28;1696;-37
2021/08/19 09:59:50;;;;;;;;;;;;;;;22.86;54.12;100560.03;5076096;28;1409;-37
2021/08/19 10:02:15;;;;;;;;;;;;;;;25.03;46.30;100568.44;5086242;28;966;-38
2021/08/19 10:04:40;;;;;;;;;;;;;;;21.68;55.38;100561.88;5097458;28;819;-37
2021/08/19 10:07:05;;;;;;;;;;;;;;;20.79;58.11;100560.41;5098046;28;743;-37
2021/08/19 10:09:31;;;;;;;;;;;;;;;24.03;49.74;100552.38;5097744;28;829;-40
2021/08/19 10:11:57;;;;;;;;;;;;;;;24.78;46.07;100543.44;5097340;28;819;-38
2021/08/19 10:14:28;;;;;;;;;;;;;;;24.19;46.81;100545.38;5097610;28;1955;-37
2021/08/19 10:16:53;;;;;;;;;;;;;;;23.71;48.21;100549.50;5091642;28;950;-39
2021/08/19 10:19:27;;;;;;;;;;;;;;;23.80;47.55;100539.59;5075542;28;771;-38
2021/08/19 10:21:55;;;;;;;;;;;;;;;23.67;47.36;100553.50;5077906;28;763;-32
2021/08/19 10:24:26;;;;;;;;;;;;;;;23.71;46.92;100549.50;5077266;28;918;-38
2021/08/19 10:27:05;;;;;;;;;;;;;;;23.23;48.68;100546.47;5075607;28;806;-37
2021/08/19 10:29:49;;;;;;;;;;;;;;;23.48;47.87;100552.78;5076974;28;767;-34
2021/08/19 10:32:25;;;;;;;;;;;;;;;23.26;48.42;100554.19;5085689;28;915;-38
2021/08/19 10:34:53;;;;;;;;;;;;;;;23.36;47.11;100546.84;5096800;28;1960;-35
2021/08/19 10:37:18;;;;;;;;;;;;;;;23.30;47.45;100547.50;5097378;28;724;-34
2021/08/19 10:39:44;;;;;;;;;;;;;;;23.39;46.82;100547.53;5097028;28;851;-36
2021/08/19 10:42:09;;;;;;;;;;;;;;;23.09;48.04;100542.53;5096776;28;779;-38
2021/08/19 10:44:35;;;;;;;;;;;;;;;23.33;47.04;100551.69;5097322;28;1441;-38
2021/08/19 10:47:01;;;;;;;;;;;;;;;23.24;47.48;100550.81;5090089;28;1024;-36
2021/08/19 10:49:30;;;;;;;;;;;;;;;23.29;47.14;100553.03;5076099;28;1056;-37
2021/08/19 10:51:55;;;;;;;;;;;;;;;23.14;47.71;100558.16;5076704;28;819;-37
2021/08/19 10:54:42;;;;;;;;;;;;;;;21.92;51.01;100548.91;5076059;28;1973;-35
2021/08/19 10:57:32;;;;;;;;;;;;;;;21.64;52.19;100555.97;5076547;28;775;-37
2021/08/19 10:59:58;;;;;;;;;;;;;;;21.32;53.12;100549.25;5076205;28;804;-37
2021/08/19 11:02:39;;;;;;;;;;;;;;;23.44;48.89;100545.25;5076454;28;970;-35
2021/08/19 11:05:05;;;;;;;;;;;;;;;23.73;45.31;100552.84;5076524;28;756;-39
2021/08/19 11:07:42;;;;;;;;;;;;;;;21.33;51.88;100539.38;5076466;28;748;-36
2021/08/19 11:10:08;;;;;;;;;;;;;;;22.14;50.62;100544.91;5076517;28;778;-35
2021/08/19 11:12:36;;;;;;;;;;;;;;;23.29;46.07;100550.34;5076631;28;875;-37
2021/08/19 11:15:01;;;;;;;;;;;;;;;23.56;45.01;100553.81;5075243;28;1894;-36
2021/08/19 11:17:27;;;;;;;;;;;;;;;23.90;43.54;100541.28;5086785;28;986;-37
2021/08/19 11:19:53;;;;;;;;;;;;;;;23.79;43.08;100534.41;5095808;28;824;-35
2021/08/19 11:22:19;;;;;;;;;;;;;;;23.94;42.63;100540.78;5096627;28;764;-34
2021/08/19 11:24:45;;;;;;;;;;;;;;;23.73;43.35;100539.44;5095398;28;783;-37
2021/08/19 11:27:10;;;;;;;;;;;;;;;24.21;42.24;100540.66;5096505;28;768;-36
2021/08/19 11:29:44;;;;;;;;;;;;;;;23.78;42.96;100535.38;5096903;28;887;-36
2021/08/19 11:32:10;;;;;;;;;;;;;;;24.17;42.14;100529.41;5092087;28;981;-36
2021/08/19 11:34:36;;;;;;;;;;;;;;;23.15;45.11;100533.84;5080089;28;1898;-36
2021/08/19 11:37:02;;;;;;;;;;;;;;;23.57;43.83;100529.47;5080355;28;815;-36
2021/08/19 11:39:27;;;;;;;;;;;;;;;23.84;42.94;100522.13;5080747;28;744;-36
2021/08/19 11:41:55;;;;;;;;;;;;;;;23.60;43.75;100529.16;5080172;28;810;-34
2021/08/19 11:44:21;;;;;;;;;;;;;;;23.83;43.04;100514.25;5080071;28;764;-37
2021/08/19 11:46:46;;;;;;;;;;;;;;;23.96;41.86;100508.38;5085124;28;943;-37
2021/08/19 11:49:12;;;;;;;;;;;;;;;23.94;42.01;100529.22;5100024;28;1067;-36
2021/08/19 11:51:38;;;;;;;;;;;;;;;23.99;41.57;100512.59;5100289;28;842;-33
2021/08/19 11:54:04;;;;;;;;;;;;;;;23.87;41.92;100514.75;5100529;28;739;-35
2021/08/19 11:56:33;;;;;;;;;;;;;;;23.60;42.80;100512.22;5100068;28;1976;-34
2021/08/19 11:59:08;;;;;;;;;;;;;;;23.90;42.14;100511.72;5100167;28;739;-36
2021/08/19 12:01:34;;;;;;;;;;;;;;;24.19;41.64;100507.75;5097037;28;1021;-36
2021/08/19 12:03:59;;;;;;;;;;;;;;;23.87;42.51;100506.69;5079545;28;783;-36
2021/08/19 12:06:27;;;;;;;;;;;;;;;23.43;43.84;100508.63;5078718;28;828;-36
2021/08/19 12:08:53;;;;;;;;;;;;;;;23.69;43.03;100505.03;5079937;28;771;-37
2021/08/19 12:11:28;;;;;;;;;;;;;;;23.48;42.82;100507.16;5078959;28;828;-34
2021/08/19 12:13:53;;;;;;;;;;;;;;;23.51;43.05;100499.75;5079609;28;846;-36
2021/08/19 12:16:28;;;;;;;;;;;;;;;23.65;42.68;100503.66;5080518;28;1902;-36
2021/08/19 12:19:06;;;;;;;;;;;;;;;23.96;42.06;100495.78;5099513;28;805;-36
2021/08/19 12:21:32;;;;;;;;;;;;;;;23.96;41.55;100493.09;5099840;28;811;-36
2021/08/19 12:24:07;;;;;;;;;;;;;;;24.04;41.44;100494.13;5099529;28;781;-34
2021/08/19 12:26:32;;;;;;;;;;;;;;;24.15;41.60;100496.47;5099205;28;811;-36
2021/08/19 12:28:57;;;;;;;;;;;;;;;23.66;42.59;100498.13;5100409;28;756;-37
2021/08/19 12:31:23;;;;;;;;;;;;;;;23.67;42.88;100477.47;5097465;28;934;-33
2021/08/19 12:33:59;;;;;;;;;;;;;;;23.71;42.39;100500.28;5079209;28;773;-37
2021/08/19 12:36:28;;;;;;;;;;;;;;;23.42;44.89;100501.59;5079344;28;1963;-35
2021/08/19 12:38:54;;;;;;;;;;;;;;;24.93;41.45;100500.53;5077614;28;820;-35
2021/08/19 12:41:20;;;;;;;;;;;;;;;23.83;44.27;100495.44;5076620;28;947;-36
2021/08/19 12:43:45;;;;;;;;;;;;;;;23.98;42.80;100490.25;5079144;28;810;-37
2021/08/19 12:46:11;;;;;;;;;;;;;;;23.70;43.44;100504.84;5079071;28;947;-36
2021/08/19 12:48:36;;;;;;;;;;;;;;;23.79;43.27;100505.69;5098721;28;1755;-33
2021/08/19 12:51:17;;;;;;;;;;;;;;;23.59;44.14;100506.00;5099423;28;732;-35